createdAt,value
2019-02-14T00:00:36.232Z,95997.28
2019-02-14T00:03:04.921Z,95997.70
2019-02-14T00:05:33.715Z,95997.88
2019-02-14T00:08:02.400Z,96000.33
2019-02-14T00:10:31.192Z,96002.09
2019-02-14T00:12:59.973Z,96008.83
2019-02-14T00:15:28.656Z,96007.75
2019-02-14T00:17:57.295Z,96008.80
2019-02-14T00:20:25.949Z,96010.79
2019-02-14T00:22:56.255Z,96009.34
2019-02-14T00:25:24.942Z,96010.34
2019-02-14T00:27:53.607Z,96007.83
2019-02-14T00:30:22.238Z,96004.31
2019-02-14T00:32:52.326Z,96010.37
2019-02-14T00:35:25.061Z,96010.67
2019-02-14T00:37:51.449Z,96007.00
2019-02-14T00:40:20.947Z,96006.13
2019-02-14T00:42:49.636Z,96000.83
2019-02-14T00:45:18.323Z,96008.55
2019-02-14T00:47:47.015Z,96008.13
2019-02-14T00:50:15.796Z,96007.37
2019-02-14T00:52:44.488Z,95998.28
2019-02-14T00:55:13.275Z,96000.25
2019-02-14T00:57:41.986Z,96003.09
2019-02-14T01:00:11.666Z,96005.73
2019-02-14T01:02:40.351Z,96011.91
2019-02-14T01:05:09.150Z,96009.75
2019-02-14T01:07:37.828Z,96010.03
2019-02-14T01:10:07.136Z,96003.58
2019-02-14T01:12:35.917Z,96007.48
2019-02-14T01:15:07.363Z,95993.16
2019-02-14T01:17:36.075Z,95986.60
2019-02-14T01:20:05.955Z,95983.05
2019-02-14T01:22:34.659Z,95990.34
2019-02-14T01:25:03.344Z,95983.87
2019-02-14T01:27:32.133Z,95980.34
2019-02-14T01:30:00.820Z,95985.96
2019-02-14T01:32:29.712Z,95980.36
2019-02-14T01:34:58.612Z,95982.52
2019-02-14T01:37:27.308Z,95982.34
2019-02-14T01:39:56.076Z,95981.45
2019-02-14T01:42:24.698Z,95979.91
2019-02-14T01:44:53.457Z,95991.33
2019-02-14T01:47:23.676Z,95982.87
2019-02-14T01:49:52.280Z,95978.98
2019-02-14T01:52:21.146Z,95970.35
2019-02-14T01:54:49.841Z,95980.98
2019-02-14T01:57:18.621Z,95976.53
2019-02-14T01:59:47.306Z,95972.91
2019-02-14T02:02:15.992Z,95970.72
2019-02-14T02:04:44.691Z,95973.81
2019-02-14T02:07:13.474Z,95981.97
2019-02-14T02:09:42.165Z,95976.60
2019-02-14T02:12:10.957Z,95979.95
2019-02-14T02:14:39.636Z,95974.90
2019-02-14T02:17:08.427Z,95970.18
2019-02-14T02:19:37.049Z,95972.27
2019-02-14T02:22:06.001Z,95970.91
2019-02-14T02:24:34.789Z,95966.55
2019-02-14T02:27:03.477Z,95964.17
2019-02-14T02:29:32.154Z,95957.11
2019-02-14T02:32:00.852Z,95959.73
2019-02-14T02:34:29.535Z,95963.27
2019-02-14T02:36:58.225Z,95964.31
2019-02-14T02:39:27.016Z,95961.07
2019-02-14T02:41:55.697Z,95969.23
2019-02-14T02:44:24.425Z,95967.53
2019-02-14T02:46:53.066Z,95972.22
2019-02-14T02:49:21.958Z,95975.81
2019-02-14T02:51:50.643Z,95970.11
2019-02-14T02:54:19.437Z,95976.83
2019-02-14T02:56:48.046Z,95978.83
2019-02-14T02:59:16.806Z,95976.85
2019-02-14T03:01:45.493Z,95973.41
2019-02-14T03:04:14.177Z,95963.05
2019-02-14T03:06:42.869Z,95966.32
2019-02-14T03:09:11.489Z,95963.79
2019-02-14T03:11:40.235Z,95966.13
2019-02-14T03:14:08.929Z,95966.02
2019-02-14T03:16:37.625Z,95964.05
2019-02-14T03:19:06.346Z,95965.73
2019-02-14T03:21:35.101Z,95959.92
2019-02-14T03:24:03.873Z,95970.66
2019-02-14T03:26:32.666Z,95972.42
2019-02-14T03:29:02.990Z,95976.14
2019-02-14T03:31:31.678Z,95989.81
2019-02-14T03:34:00.431Z,95986.29
2019-02-14T03:36:29.156Z,95981.46
2019-02-14T03:38:57.878Z,95982.86
2019-02-14T03:41:26.829Z,95971.31
2019-02-14T03:43:55.499Z,95974.39
2019-02-14T03:46:24.214Z,95974.67
2019-02-14T03:48:57.388Z,95976.03
2019-02-14T03:51:26.184Z,95976.03
2019-02-14T03:53:54.900Z,95980.28
2019-02-14T03:56:23.660Z,95990.52
2019-02-14T03:58:52.363Z,95992.60
2019-02-14T04:01:21.130Z,95997.96
2019-02-14T04:03:49.820Z,96003.45
2019-02-14T04:06:26.965Z,96005.31
2019-02-14T04:08:49.050Z,96021.50
2019-02-14T04:11:17.829Z,96022.77
2019-02-14T04:13:46.617Z,96030.22
2019-02-14T04:16:15.302Z,96023.35
2019-02-14T04:18:44.091Z,96027.66
2019-02-14T04:21:12.782Z,96038.09
2019-02-14T04:23:41.398Z,96031.56
2019-02-14T04:26:10.070Z,96030.64
2019-02-14T04:28:38.843Z,96028.51
2019-02-14T04:31:07.527Z,96017.00
2019-02-14T04:33:36.141Z,96021.42
2019-02-14T04:36:04.999Z,96023.18
2019-02-14T04:38:33.689Z,96013.59
2019-02-14T04:41:02.475Z,96012.77
2019-02-14T04:43:31.262Z,96015.11
2019-02-14T04:45:59.949Z,96017.93
2019-02-14T04:48:28.635Z,96009.58
2019-02-14T04:50:57.428Z,96005.55
2019-02-14T04:53:26.107Z,96014.04
2019-02-14T04:55:54.812Z,96016.39
2019-02-14T04:58:23.587Z,96014.42
2019-02-14T05:00:52.199Z,96017.70
2019-02-14T05:03:20.959Z,96020.08
2019-02-14T05:05:49.656Z,96011.72
2019-02-14T05:08:18.431Z,96014.58
2019-02-14T05:10:47.119Z,96006.50
2019-02-14T05:13:15.808Z,96015.79
2019-02-14T05:15:44.495Z,96014.94
2019-02-14T05:18:14.633Z,96013.30
2019-02-14T05:20:43.295Z,96012.67
2019-02-14T05:23:12.088Z,96011.38
2019-02-14T05:25:40.894Z,96014.52
2019-02-14T05:28:09.563Z,96019.81
2019-02-14T05:30:38.264Z,96017.55
2019-02-14T05:33:06.937Z,96023.77
2019-02-14T05:35:37.332Z,96023.91
2019-02-14T05:38:06.051Z,96028.50
2019-02-14T05:40:34.849Z,96030.98
2019-02-14T05:43:03.523Z,96032.56
2019-02-14T05:45:32.312Z,96033.03
2019-02-14T05:48:02.538Z,96038.41
2019-02-14T05:50:31.214Z,96042.27
2019-02-14T05:52:59.909Z,96043.38
2019-02-14T05:55:28.706Z,96046.15
2019-02-14T05:57:57.412Z,96049.19
2019-02-14T06:00:26.187Z,96055.42
2019-02-14T06:02:54.860Z,96058.39
2019-02-14T06:05:23.664Z,96064.65
2019-02-14T06:07:52.332Z,96071.15
2019-02-14T06:10:20.944Z,96076.22
2019-02-14T06:12:49.707Z,96078.44
2019-02-14T06:15:19.929Z,96081.38
2019-02-14T06:17:48.824Z,96084.94
2019-02-14T06:20:17.505Z,96088.61
2019-02-14T06:22:46.191Z,96096.36
2019-02-14T06:25:14.888Z,96093.22
2019-02-14T06:27:43.570Z,96091.97
2019-02-14T06:30:14.403Z,96087.72
2019-02-14T06:32:43.090Z,96093.03
2019-02-14T06:35:12.292Z,96096.30
2019-02-14T06:37:40.984Z,96095.91
2019-02-14T06:40:11.948Z,96088.95
2019-02-14T06:42:42.908Z,96088.12
2019-02-14T06:45:18.584Z,96094.59
2019-02-14T06:47:47.200Z,96109.02
2019-02-14T06:50:17.423Z,96107.80
2019-02-14T06:52:46.093Z,96116.16
2019-02-14T06:55:14.782Z,96119.80
2019-02-14T06:57:43.652Z,96112.95
2019-02-14T07:00:17.282Z,96112.84
2019-02-14T07:02:49.033Z,96105.27
2019-02-14T07:05:17.829Z,96115.68
2019-02-14T07:07:46.517Z,96112.16
2019-02-14T07:10:15.326Z,96112.45
2019-02-14T07:12:44.137Z,96121.17
2019-02-14T07:15:14.027Z,96125.23
2019-02-14T07:17:42.889Z,96128.80
2019-02-14T07:20:16.396Z,96123.40
2019-02-14T07:22:45.191Z,96120.83
2019-02-14T07:25:13.814Z,96115.23
2019-02-14T07:27:42.556Z,96111.45
2019-02-14T07:30:17.181Z,96108.66
2019-02-14T07:32:45.877Z,96111.56
2019-02-14T07:35:14.557Z,96106.73
2019-02-14T07:37:43.343Z,96104.13
2019-02-14T07:40:14.043Z,96096.23
2019-02-14T07:42:42.769Z,96090.94
2019-02-14T07:45:16.259Z,96087.22
2019-02-14T07:47:45.258Z,96087.66
2019-02-14T07:50:14.455Z,96090.74
2019-02-14T07:52:43.392Z,96089.59
2019-02-14T07:55:13.430Z,96084.02
2019-02-14T07:57:43.077Z,96087.29
2019-02-14T08:00:14.220Z,96095.56
2019-02-14T08:02:43.006Z,96099.89
2019-02-14T08:05:12.225Z,96090.53
2019-02-14T08:07:41.005Z,96089.83
2019-02-14T08:10:12.138Z,96085.55
2019-02-14T08:12:40.925Z,96082.42
2019-02-14T08:15:12.177Z,96085.06
2019-02-14T08:17:41.171Z,96095.34
2019-02-14T08:20:12.257Z,96094.02
2019-02-14T08:22:41.021Z,96093.54
2019-02-14T08:25:11.995Z,96092.92
2019-02-14T08:27:40.725Z,96094.94
2019-02-14T08:30:15.971Z,96100.05
2019-02-14T08:32:44.759Z,96100.67
2019-02-14T08:35:13.427Z,96104.58
2019-02-14T08:37:45.629Z,96101.27
2019-02-14T08:40:18.405Z,96110.11
2019-02-14T08:42:47.509Z,96113.08
2019-02-14T08:45:16.286Z,96113.91
2019-02-14T08:47:45.066Z,96110.16
2019-02-14T08:50:13.762Z,96103.23
2019-02-14T08:52:42.399Z,96100.05
2019-02-14T08:55:11.549Z,96093.75
2019-02-14T08:57:40.347Z,96095.74
2019-02-14T09:00:14.134Z,96089.84
2019-02-14T09:02:42.940Z,96083.95
2019-02-14T09:05:11.761Z,96076.96
2019-02-14T09:07:40.470Z,96075.46
2019-02-14T09:10:14.202Z,96084.70
2019-02-14T09:12:43.190Z,96078.89
2019-02-14T09:15:13.756Z,96080.47
2019-02-14T09:17:42.518Z,96084.96
2019-02-14T09:20:21.749Z,96086.30
2019-02-14T09:22:50.539Z,96076.95
2019-02-14T09:25:19.222Z,96076.77
2019-02-14T09:27:48.009Z,96074.02
2019-02-14T09:30:16.694Z,96072.30
2019-02-14T09:32:45.690Z,96075.67
2019-02-14T09:35:14.486Z,96069.75
2019-02-14T09:37:43.165Z,96075.52
2019-02-14T09:40:18.748Z,96076.27
2019-02-14T09:42:47.508Z,96079.25
2019-02-14T09:45:16.406Z,96072.41
2019-02-14T09:47:45.195Z,96068.34
2019-02-14T09:50:15.124Z,96071.86
2019-02-14T09:52:44.222Z,96074.69
2019-02-14T09:55:15.562Z,96072.89
2019-02-14T09:57:44.332Z,96065.67
2019-02-14T10:00:15.591Z,96071.34
2019-02-14T10:02:44.399Z,96077.83
2019-02-14T10:05:13.158Z,96059.41
2019-02-14T10:07:41.843Z,96052.86
2019-02-14T10:10:15.444Z,96062.72
2019-02-14T10:12:44.435Z,96057.17
2019-02-14T10:15:13.226Z,96052.98
2019-02-14T10:17:41.911Z,96050.85
2019-02-14T10:20:15.719Z,96042.97
2019-02-14T10:22:44.358Z,96036.68
2019-02-14T10:25:13.631Z,96046.16
2019-02-14T10:27:42.395Z,96048.75
2019-02-14T10:30:16.605Z,96027.80
2019-02-14T10:32:45.496Z,96030.61
2019-02-14T10:35:14.187Z,96021.09
2019-02-14T10:37:42.891Z,96029.76
2019-02-14T10:40:14.324Z,96012.46
2019-02-14T10:42:43.012Z,96019.93
2019-02-14T10:45:14.356Z,95998.53
2019-02-14T10:47:43.142Z,96002.98
2019-02-14T10:50:12.253Z,95996.31
2019-02-14T10:52:41.027Z,95983.05
2019-02-14T10:55:14.431Z,95977.05
2019-02-14T10:57:43.121Z,95981.58
2019-02-14T11:00:28.491Z,95972.68
2019-02-14T11:02:58.728Z,95970.83
2019-02-14T11:05:27.502Z,95971.02
2019-02-14T11:07:56.290Z,95965.89
2019-02-14T11:10:24.913Z,95966.06
2019-02-14T11:12:53.680Z,95962.12
2019-02-14T11:15:24.307Z,95962.65
2019-02-14T11:17:54.287Z,95965.12
2019-02-14T11:20:23.005Z,95963.09
2019-02-14T11:22:51.692Z,95945.47
2019-02-14T11:25:31.780Z,95949.66
2019-02-14T11:28:00.430Z,95956.19
2019-02-14T11:30:29.116Z,95960.69
2019-02-14T11:32:58.024Z,95958.38
2019-02-14T11:35:26.803Z,95965.98
2019-02-14T11:37:55.489Z,95954.50
2019-02-14T11:40:24.269Z,95952.60
2019-02-14T11:42:53.055Z,95958.88
2019-02-14T11:45:24.441Z,95953.23
2019-02-14T11:47:53.201Z,95953.34
2019-02-14T11:50:23.513Z,95950.95
2019-02-14T11:52:52.205Z,95948.88
2019-02-14T11:55:20.995Z,95953.59
2019-02-14T11:57:49.625Z,95950.83
2019-02-14T12:00:27.057Z,95942.77
2019-02-14T12:02:57.258Z,95936.29
2019-02-14T12:05:26.002Z,95938.45
2019-02-14T12:07:54.768Z,95941.79
2019-02-14T12:10:23.569Z,95941.75
2019-02-14T12:12:52.243Z,95937.64
2019-02-14T12:15:23.159Z,95936.49
2019-02-14T12:17:51.462Z,95929.51
2019-02-14T12:20:20.258Z,95922.15
2019-02-14T12:22:49.139Z,95912.43
2019-02-14T12:25:23.456Z,95907.54
2019-02-14T12:27:52.248Z,95902.71
2019-02-14T12:30:20.958Z,95895.54
2019-02-14T12:32:49.724Z,95896.68
2019-02-14T12:35:18.410Z,95900.27
2019-02-14T12:37:47.090Z,95902.59
2019-02-14T12:40:15.879Z,95896.54
2019-02-14T12:42:45.498Z,95892.20
2019-02-14T12:45:21.592Z,95891.42
2019-02-14T12:47:47.569Z,95883.01
2019-02-14T12:50:16.276Z,95880.28
2019-02-14T12:52:44.946Z,95879.63
2019-02-14T12:55:13.636Z,95877.09
2019-02-14T12:57:42.316Z,95870.64
2019-02-14T13:00:17.298Z,95865.16
2019-02-14T13:02:47.508Z,95862.05
2019-02-14T13:05:16.259Z,95863.36
2019-02-14T13:07:45.049Z,95853.22
2019-02-14T13:10:16.195Z,95852.02
2019-02-14T13:12:44.981Z,95851.23
2019-02-14T13:15:16.668Z,95847.03
2019-02-14T13:17:45.558Z,95844.74
2019-02-14T13:20:14.224Z,95835.83
2019-02-14T13:22:42.900Z,95832.42
2019-02-14T13:25:12.409Z,95807.36
2019-02-14T13:27:41.193Z,95830.19
2019-02-14T13:30:13.198Z,95826.01
2019-02-14T13:32:41.952Z,95821.94
2019-02-14T13:35:10.737Z,95813.16
2019-02-14T13:37:43.263Z,95813.30
2019-02-14T13:40:12.115Z,95810.59
2019-02-14T13:42:40.920Z,95806.82
2019-02-14T13:45:12.680Z,95810.47
2019-02-14T13:47:41.446Z,95809.00
2019-02-14T13:50:16.021Z,95809.01
2019-02-14T13:52:44.860Z,95813.31
2019-02-14T13:55:13.856Z,95812.00
2019-02-14T13:57:42.536Z,95801.23
2019-02-14T14:00:14.808Z,95802.53
2019-02-14T14:02:43.516Z,95804.61
2019-02-14T14:05:12.307Z,95797.20
2019-02-14T14:07:40.989Z,95788.96
2019-02-14T14:10:10.682Z,95789.77
2019-02-14T14:12:39.376Z,95791.38
2019-02-14T14:15:10.002Z,95798.00
2019-02-14T14:17:38.668Z,95807.55
2019-02-14T14:20:08.704Z,95810.13
2019-02-14T14:22:37.490Z,95812.70
2019-02-14T14:25:08.121Z,95821.53
2019-02-14T14:27:37.437Z,95832.80
2019-02-14T14:30:11.713Z,95843.45
2019-02-14T14:32:40.428Z,95846.70
2019-02-14T14:35:11.280Z,95860.36
2019-02-14T14:37:40.391Z,95865.00
2019-02-14T14:40:21.545Z,95853.36
2019-02-14T14:42:51.757Z,95853.80
2019-02-14T14:45:39.500Z,95846.98
2019-02-14T14:48:18.982Z,95847.56
2019-02-14T14:50:40.270Z,95834.19
2019-02-14T14:53:10.832Z,95832.41
2019-02-14T14:55:39.672Z,95835.75
2019-02-14T14:58:11.546Z,95836.31
2019-02-14T15:00:40.542Z,95832.27
2019-02-14T15:03:09.305Z,95825.99
2019-02-14T15:05:38.209Z,95819.97
2019-02-14T15:08:06.892Z,95812.27
2019-02-14T15:10:35.991Z,95803.77
2019-02-14T15:13:06.170Z,95801.68
2019-02-14T15:15:36.539Z,95795.29
2019-02-14T15:18:05.428Z,95798.01
2019-02-14T15:20:34.169Z,95799.91
2019-02-14T15:23:03.104Z,95797.18
2019-02-14T15:25:31.831Z,95809.58
2019-02-14T15:28:03.436Z,95808.70
2019-02-14T15:30:32.242Z,95805.27
2019-02-14T15:33:01.023Z,95805.58
2019-02-14T15:35:29.811Z,95821.96
2019-02-14T15:37:58.605Z,95841.10
2019-02-14T15:40:27.384Z,95844.76
2019-02-14T15:42:56.175Z,95833.27
2019-02-14T15:45:24.964Z,95827.91
2019-02-14T15:47:53.647Z,95823.16
2019-02-14T15:50:23.007Z,95819.94
2019-02-14T15:52:54.688Z,95812.34
2019-02-14T15:55:26.109Z,95809.56
2019-02-14T15:57:54.865Z,95801.27
2019-02-14T16:00:23.846Z,95799.69
2019-02-14T16:02:52.660Z,95804.06
2019-02-14T16:05:21.416Z,95795.97
2019-02-14T16:07:50.231Z,95798.56
2019-02-14T16:10:19.070Z,95803.95
2019-02-14T16:12:47.886Z,95799.48
2019-02-14T16:15:16.596Z,95796.05
2019-02-14T16:17:45.379Z,95792.61
2019-02-14T16:20:15.392Z,95794.81
2019-02-14T16:22:48.362Z,95799.84
2019-02-14T16:25:17.047Z,95811.31
2019-02-14T16:27:46.521Z,95805.19
2019-02-14T16:30:16.641Z,95809.55
2019-02-14T16:32:45.575Z,95813.35
2019-02-14T16:35:14.453Z,95811.56
2019-02-14T16:37:43.142Z,95814.67
2019-02-14T16:40:13.143Z,95815.61
2019-02-14T16:42:43.519Z,95824.93
2019-02-14T16:45:12.716Z,95828.31
2019-02-14T16:47:41.477Z,95819.11
2019-02-14T16:50:11.605Z,95815.61
2019-02-14T16:52:41.979Z,95816.20
2019-02-14T16:55:10.646Z,95822.21
2019-02-14T16:57:39.514Z,95826.08
2019-02-14T17:00:12.905Z,95827.52
2019-02-14T17:02:41.613Z,95831.92
2019-02-14T17:05:11.911Z,95837.30
2019-02-14T17:07:40.812Z,95840.92
2019-02-14T17:10:14.122Z,95846.20
2019-02-14T17:12:44.934Z,95854.14
2019-02-14T17:15:13.620Z,95847.27
2019-02-14T17:17:42.430Z,95850.06
2019-02-14T17:20:11.814Z,95847.60
2019-02-14T17:22:40.785Z,95847.83
2019-02-14T17:25:11.039Z,95859.12
2019-02-14T17:27:39.719Z,95862.09
2019-02-14T17:30:10.375Z,95861.51
2019-02-14T17:32:39.240Z,95865.23
2019-02-14T17:35:10.197Z,95870.27
2019-02-14T17:37:39.071Z,95871.52
2019-02-14T17:40:12.408Z,95878.55
2019-02-14T17:42:41.154Z,95883.08
2019-02-14T17:45:10.689Z,95875.75
2019-02-14T17:47:41.129Z,95881.91
2019-02-14T17:50:10.438Z,95886.72
2019-02-14T17:52:39.181Z,95883.95
2019-02-14T17:55:09.882Z,95880.45
2019-02-14T17:57:38.609Z,95885.78
2019-02-14T18:00:10.768Z,95883.59
2019-02-14T18:02:39.553Z,95886.72
2019-02-14T18:05:09.479Z,95884.28
2019-02-14T18:07:38.815Z,95882.20
2019-02-14T18:10:10.361Z,95890.12
2019-02-14T18:12:39.312Z,95893.47
2019-02-14T18:15:13.116Z,95896.62
2019-02-14T18:17:41.926Z,95896.14
2019-02-14T18:20:12.090Z,95894.41
2019-02-14T18:22:44.263Z,95898.25
2019-02-14T18:25:13.410Z,95895.81
2019-02-14T18:27:42.406Z,95901.50
2019-02-14T18:30:12.135Z,95901.96
2019-02-14T18:32:40.892Z,95901.04
2019-02-14T18:35:11.424Z,95902.90
2019-02-14T18:37:40.208Z,95905.31
2019-02-14T18:40:10.653Z,95912.28
2019-02-14T18:42:45.256Z,95910.08
2019-02-14T18:45:14.783Z,95907.06
2019-02-14T18:47:44.910Z,95912.41
2019-02-14T18:50:14.644Z,95907.37
2019-02-14T18:52:43.484Z,95909.02
2019-02-14T18:55:12.475Z,95912.55
2019-02-14T18:57:41.492Z,95924.02
2019-02-14T19:00:15.734Z,95932.03
2019-02-14T19:02:44.832Z,95922.22
2019-02-14T19:05:16.675Z,95925.44
2019-02-14T19:07:46.052Z,95918.02
2019-02-14T19:10:17.913Z,95924.08
2019-02-14T19:12:48.499Z,95913.23
2019-02-14T19:15:18.940Z,95916.00
2019-02-14T19:17:48.002Z,95927.86
2019-02-14T19:20:20.447Z,95924.41
2019-02-14T19:22:49.630Z,95923.09
2019-02-14T19:25:18.909Z,95923.64
2019-02-14T19:27:50.267Z,95929.02
2019-02-14T19:30:21.862Z,95922.39
2019-02-14T19:32:51.255Z,95923.04
2019-02-14T19:35:23.196Z,95921.08
2019-02-14T19:37:51.075Z,95911.44
2019-02-14T19:40:21.796Z,95907.72
2019-02-14T19:42:50.689Z,95909.67
2019-02-14T19:45:19.528Z,95908.22
2019-02-14T19:47:49.982Z,95905.98
2019-02-14T19:50:19.111Z,95910.16
2019-02-14T19:52:48.008Z,95905.55
2019-02-14T19:55:16.850Z,95909.38
2019-02-14T19:57:45.652Z,95900.66
2019-02-14T20:00:15.913Z,95906.80
2019-02-14T20:02:44.564Z,95898.39
2019-02-14T20:05:13.294Z,95892.47
2019-02-14T20:07:44.237Z,95897.11
2019-02-14T20:10:14.397Z,95897.86
2019-02-14T20:12:45.122Z,95905.02
2019-02-14T20:15:21.004Z,95897.36
2019-02-14T20:17:49.816Z,95893.04
2019-02-14T20:20:18.548Z,95890.63
2019-02-14T20:22:47.269Z,95896.78
2019-02-14T20:25:22.033Z,95901.61
2019-02-14T20:27:50.688Z,95903.55
2019-02-14T20:30:19.437Z,95916.16
2019-02-14T20:32:48.045Z,95926.53
2019-02-14T20:35:16.747Z,95931.13
2019-02-14T20:37:45.587Z,95928.06
2019-02-14T20:40:14.283Z,95925.00
2019-02-14T20:42:44.163Z,95918.20
2019-02-14T20:45:14.686Z,95923.81
2019-02-14T20:47:43.507Z,95922.19
2019-02-14T20:50:13.865Z,95928.83
2019-02-14T20:52:42.734Z,95923.36
2019-02-14T20:55:17.682Z,95921.58
2019-02-14T20:57:46.545Z,95926.53
2019-02-14T21:00:17.494Z,95925.56
2019-02-14T21:02:49.651Z,95923.58
2019-02-14T21:05:20.153Z,95915.46
2019-02-14T21:07:48.837Z,95916.52
2019-02-14T21:10:17.699Z,95918.92
2019-02-14T21:12:46.418Z,95921.11
2019-02-14T21:15:17.979Z,95921.91
2019-02-14T21:17:46.777Z,95924.45
2019-02-14T21:20:16.756Z,95919.45
2019-02-14T21:22:45.467Z,95927.88
2019-02-14T21:25:15.394Z,95936.03
2019-02-14T21:27:44.109Z,95942.98
2019-02-14T21:30:15.968Z,95950.03
2019-02-14T21:32:44.726Z,95948.80
2019-02-14T21:35:13.639Z,95942.17
2019-02-14T21:37:42.480Z,95946.91
2019-02-14T21:40:13.760Z,95945.89
2019-02-14T21:42:42.484Z,95946.08
2019-02-14T21:45:13.097Z,95948.27
2019-02-14T21:47:41.880Z,95946.94
2019-02-14T21:50:14.838Z,95949.30
2019-02-14T21:52:43.675Z,95940.80
2019-02-14T21:55:13.541Z,95939.27
2019-02-14T21:57:42.308Z,95942.11
2019-02-14T22:00:16.978Z,95936.09
2019-02-14T22:02:46.076Z,95938.64
2019-02-14T22:05:14.922Z,95936.26
2019-02-14T22:07:43.754Z,95934.17
2019-02-14T22:10:13.753Z,95930.64
2019-02-14T22:12:43.432Z,95936.09
2019-02-14T22:15:21.437Z,95939.47
2019-02-14T22:17:50.123Z,95939.31
2019-02-14T22:20:18.920Z,95938.95
2019-02-14T22:22:47.526Z,95937.23
2019-02-14T22:25:16.260Z,95939.15
2019-02-14T22:27:44.941Z,95936.03
2019-02-14T22:30:15.486Z,95940.19
2019-02-14T22:32:45.010Z,95937.48
2019-02-14T22:35:13.830Z,95940.49
2019-02-14T22:37:44.125Z,95940.33
2019-02-14T22:40:13.901Z,95944.84
2019-02-14T22:42:47.057Z,95937.95
2019-02-14T22:45:14.742Z,95942.31
2019-02-14T22:47:44.679Z,95931.37
2019-02-14T22:50:13.754Z,95934.78
2019-02-14T22:52:42.465Z,95936.92
2019-02-14T22:55:12.473Z,95942.05
2019-02-14T22:57:41.203Z,95940.83
2019-02-14T23:00:32.806Z,95940.41
2019-02-14T23:03:01.417Z,95946.45
2019-02-14T23:05:30.036Z,95943.59
2019-02-14T23:07:58.724Z,95946.12
2019-02-14T23:10:27.348Z,95944.66
2019-02-14T23:12:56.368Z,95937.20
2019-02-14T23:15:25.117Z,95940.69
2019-02-14T23:17:53.744Z,95942.75
2019-02-14T23:20:22.418Z,95950.73
2019-02-14T23:22:52.750Z,95955.94
2019-02-14T23:25:21.938Z,95957.94
2019-02-14T23:27:50.639Z,95951.73
2019-02-14T23:30:19.256Z,95949.50
2019-02-14T23:32:47.935Z,95948.73
2019-02-14T23:35:16.549Z,95945.61
2019-02-14T23:37:45.251Z,95954.05
2019-02-14T23:40:13.887Z,95960.48
2019-02-14T23:42:42.656Z,95963.94
2019-02-14T23:45:12.942Z,95976.14
2019-02-14T23:47:41.569Z,95976.75
2019-02-14T23:50:13.097Z,95970.21
2019-02-14T23:52:41.714Z,95963.59
2019-02-14T23:55:10.676Z,95967.13
2019-02-14T23:57:39.370Z,95970.23
